Costa Romantica — IBCR — position and weather

sailwx.info

Track history (hours):
 
Tides and Currents Weather Stations Pressure Air Temp Water Temp Dewpoint Dewpoint Depression Visibility Wind Speed Wind Dir Waves Ship Positions

Costa Romantica

Last reported at 2018-Dec-11 14:36 UTC. Time now 2018-Dec-12 14:07 UTC.
Position N 31°07' E 122°17'.

Length 221 m; draft 7.8 m.

Type: Ship. MMSI: 247817000.

Date/timePositionNaut miles runAvg speedWind from/ knotsBaromVisibWave heightAir tempDewpointWater temp
2018-Dec-11 14:36N 31°07' E 122°17'115.2
2018-Dec-11 14:30N 31°08' E 122°16'914.9
2018-Dec-11 13:55N 31°13' E 122°07'1014.8
2018-Dec-11 13:15N 31°15' E 121°56'815.0
2018-Dec-11 12:45N 31°18' E 121°48'3 0.2
2018-Dec-10 17:39N 31°19' E 121°44'211.2
2018-Dec-10 17:30N 31°18' E 121°46'611.2
2018-Dec-10 17:00N 31°16' E 121°52'611.1
2018-Dec-10 16:30N 31°15' E 121°58'612.1
2018-Dec-10 16:01N 31°14' E 122°05'610.5
2018-Dec-10 15:28N 31°11' E 122°11'5 9.8
2018-Dec-10 15:00N 31°08' E 122°15'5 9.4
2018-Dec-10 14:30N 31°06' E 122°20'611.8
2018-Dec-10 14:00N 31°07' E 122°27'  
Track history (hours):
 
Tides and Currents Weather Stations Pressure Air Temp Water Temp Dewpoint Dewpoint Depression Visibility Wind Speed Wind Dir Waves Ship Positions

Costa Romantica

Last reported at 2018-Dec-11 14:36 UTC. Time now 2018-Dec-12 14:07 UTC.
Position N 31°07' E 122°17'.

Length 221 m; draft 7.8 m.

Type: Ship. MMSI: 247817000.

Date/timePositionNaut miles runAvg speedWind from/ knotsBaromVisibWave heightAir tempDewpointWater temp
2018-Dec-11 14:36N 31°07' E 122°17'115.2
2018-Dec-11 14:30N 31°08' E 122°16'914.9
2018-Dec-11 13:55N 31°13' E 122°07'1014.8
2018-Dec-11 13:15N 31°15' E 121°56'815.0
2018-Dec-11 12:45N 31°18' E 121°48'3 0.2
2018-Dec-10 17:39N 31°19' E 121°44'211.2
2018-Dec-10 17:30N 31°18' E 121°46'611.2
2018-Dec-10 17:00N 31°16' E 121°52'611.1
2018-Dec-10 16:30N 31°15' E 121°58'612.1
2018-Dec-10 16:01N 31°14' E 122°05'610.5
2018-Dec-10 15:28N 31°11' E 122°11'5 9.8
2018-Dec-10 15:00N 31°08' E 122°15'5 9.4
2018-Dec-10 14:30N 31°06' E 122°20'611.8
2018-Dec-10 14:00N 31°07' E 122°27'  

Dump ship's entire track history